createdAt,value
2017-10-19T00:01:09.799Z,52.63
2017-10-19T00:03:37.358Z,51.07
2017-10-19T00:06:06.419Z,49.37
2017-10-19T00:08:34.017Z,52.10
2017-10-19T00:11:01.592Z,50.53
2017-10-19T00:13:29.572Z,49.37
2017-10-19T00:15:58.183Z,48.87
2017-10-19T00:18:25.747Z,50.03
2017-10-19T00:20:53.355Z,47.50
2017-10-19T00:23:21.038Z,51.20
2017-10-19T00:25:49.603Z,49.17
2017-10-19T00:28:17.180Z,47.90
2017-10-19T00:30:45.529Z,49.17
2017-10-19T00:33:13.130Z,48.27
2017-10-19T00:35:40.711Z,47.80
2017-10-19T00:38:08.334Z,48.67
2017-10-19T00:40:35.900Z,44.53
2017-10-19T00:43:04.229Z,46.17
2017-10-19T00:45:31.836Z,50.00
2017-10-19T00:48:00.178Z,50.33
2017-10-19T00:50:28.160Z,45.50
2017-10-19T00:52:55.705Z,44.83
2017-10-19T00:55:23.264Z,48.33
2017-10-19T00:57:50.851Z,45.07
2017-10-19T01:00:18.453Z,47.70
2017-10-19T01:02:46.068Z,46.90
2017-10-19T01:05:13.640Z,46.50
2017-10-19T01:07:41.198Z,46.23
2017-10-19T01:10:08.814Z,48.97
2017-10-19T01:12:36.375Z,46.03
2017-10-19T01:15:03.983Z,47.10
2017-10-19T01:17:32.307Z,46.50
2017-10-19T01:19:59.952Z,47.03
2017-10-19T01:22:27.752Z,43.50
2017-10-19T01:24:55.451Z,44.53
2017-10-19T01:27:23.824Z,46.20
2017-10-19T01:29:51.541Z,46.63
2017-10-19T01:32:19.098Z,42.43
2017-10-19T01:34:46.707Z,42.80
2017-10-19T01:37:15.336Z,43.53
2017-10-19T01:39:42.955Z,48.30
2017-10-19T01:42:10.556Z,45.67
2017-10-19T01:44:38.116Z,41.43
2017-10-19T01:47:05.715Z,49.17
2017-10-19T01:49:46.659Z,47.47
2017-10-19T01:52:14.247Z,51.50
2017-10-19T01:54:41.789Z,51.60
2017-10-19T01:57:09.383Z,45.87
2017-10-19T01:59:37.700Z,44.60
2017-10-19T02:02:05.242Z,46.40
2017-10-19T02:04:32.875Z,42.90
2017-10-19T02:07:00.446Z,48.83
2017-10-19T02:09:29.100Z,45.30
2017-10-19T02:11:56.676Z,45.13
2017-10-19T02:14:24.260Z,45.53
2017-10-19T02:16:52.641Z,46.43
2017-10-19T02:19:20.192Z,45.90
2017-10-19T02:21:47.788Z,48.80
2017-10-19T02:24:16.163Z,43.77
2017-10-19T02:26:43.755Z,44.53
2017-10-19T02:29:11.353Z,44.03
2017-10-19T02:31:38.916Z,42.53
2017-10-19T02:34:06.917Z,44.80
2017-10-19T02:36:34.472Z,42.57
2017-10-19T02:39:02.132Z,41.27
2017-10-19T02:41:29.859Z,41.47
2017-10-19T02:43:57.430Z,43.80
2017-10-19T02:46:25.425Z,44.70
2017-10-19T02:48:52.984Z,46.93
2017-10-19T02:51:20.932Z,45.80
2017-10-19T02:53:48.530Z,42.03
2017-10-19T02:56:16.085Z,44.80
2017-10-19T02:58:43.968Z,45.73
2017-10-19T03:01:11.522Z,41.87
2017-10-19T03:03:39.085Z,41.07
2017-10-19T03:06:06.674Z,42.83
2017-10-19T03:08:34.229Z,47.80
2017-10-19T03:11:02.582Z,42.40
2017-10-19T03:13:30.141Z,43.20
2017-10-19T03:15:57.731Z,45.10
2017-10-19T03:18:25.318Z,41.67
2017-10-19T03:20:52.877Z,41.87
2017-10-19T03:23:20.778Z,41.70
2017-10-19T03:25:48.330Z,41.67
2017-10-19T03:28:16.147Z,41.10
2017-10-19T03:30:44.639Z,42.03
2017-10-19T03:33:13.243Z,43.63
2017-10-19T03:35:40.845Z,43.53
2017-10-19T03:38:08.392Z,44.97
2017-10-19T03:40:36.079Z,43.43
2017-10-19T03:43:04.444Z,43.67
2017-10-19T03:45:31.995Z,42.50
2017-10-19T03:47:59.765Z,45.60
2017-10-19T03:50:27.865Z,46.80
2017-10-19T03:52:56.326Z,49.60
2017-10-19T03:55:23.922Z,49.67
2017-10-19T03:57:51.494Z,48.27
2017-10-19T04:00:19.119Z,48.70
2017-10-19T04:02:47.442Z,44.60
2017-10-19T04:05:15.017Z,44.63
2017-10-19T04:07:42.622Z,43.50
2017-10-19T04:10:10.177Z,43.63
2017-10-19T04:12:39.032Z,42.60
2017-10-19T04:15:06.589Z,45.20
2017-10-19T04:17:34.133Z,41.17
2017-10-19T04:20:01.727Z,47.33
2017-10-19T04:22:29.283Z,45.77
2017-10-19T04:24:56.878Z,44.00
2017-10-19T04:27:24.605Z,43.57
2017-10-19T04:29:52.150Z,44.17
2017-10-19T04:32:19.740Z,42.40
2017-10-19T04:34:47.430Z,40.90
2017-10-19T04:37:15.432Z,42.70
2017-10-19T04:39:43.005Z,43.93
2017-10-19T04:42:10.550Z,43.27
2017-10-19T04:44:38.157Z,46.97
2017-10-19T04:47:05.709Z,42.10
2017-10-19T04:49:33.538Z,42.27
2017-10-19T04:52:01.083Z,44.53
2017-10-19T04:54:28.647Z,41.50
2017-10-19T04:56:56.248Z,42.90
2017-10-19T04:59:23.838Z,40.47
2017-10-19T05:01:52.476Z,42.43
2017-10-19T05:04:20.039Z,47.80
2017-10-19T05:06:47.838Z,45.40
2017-10-19T05:09:16.220Z,47.93
2017-10-19T05:11:43.774Z,45.40
2017-10-19T05:14:12.431Z,42.23
2017-10-19T05:16:39.991Z,42.77
2017-10-19T05:19:07.535Z,42.50
2017-10-19T05:21:35.117Z,39.73
2017-10-19T05:24:02.677Z,40.27
2017-10-19T05:26:31.193Z,39.37
2017-10-19T05:28:58.737Z,40.07
2017-10-19T05:31:26.290Z,37.77
2017-10-19T05:33:53.892Z,37.83
2017-10-19T05:36:21.450Z,38.20
2017-10-19T05:38:49.054Z,41.30
2017-10-19T05:41:16.606Z,37.83
2017-10-19T05:43:44.134Z,35.27
2017-10-19T05:46:11.901Z,37.40
2017-10-19T05:48:39.441Z,38.80
2017-10-19T05:51:07.345Z,34.90
2017-10-19T05:53:34.890Z,34.80
2017-10-19T05:56:02.587Z,37.57
2017-10-19T05:58:30.165Z,36.87
2017-10-19T06:00:58.473Z,35.97
2017-10-19T06:03:26.088Z,37.03
2017-10-19T06:05:53.629Z,35.47
2017-10-19T06:08:21.174Z,36.43
2017-10-19T06:10:48.759Z,38.77
2017-10-19T06:13:16.319Z,37.83
2017-10-19T06:15:43.907Z,39.20
2017-10-19T06:18:11.465Z,39.50
2017-10-19T06:20:39.892Z,36.03
2017-10-19T06:23:07.487Z,38.70
2017-10-19T06:25:35.803Z,38.67
2017-10-19T06:28:03.394Z,40.43
2017-10-19T06:30:30.950Z,40.70
2017-10-19T06:32:58.509Z,39.27
2017-10-19T06:35:26.124Z,38.07
2017-10-19T06:37:54.474Z,39.10
2017-10-19T06:40:22.421Z,39.43
2017-10-19T06:42:49.959Z,36.20
2017-10-19T06:45:17.525Z,37.17
2017-10-19T06:47:45.191Z,39.13
2017-10-19T06:50:12.762Z,40.37
2017-10-19T06:52:40.747Z,36.27
2017-10-19T06:55:08.358Z,37.43
2017-10-19T06:57:35.922Z,36.60
2017-10-19T07:00:03.506Z,34.73
2017-10-19T07:02:31.065Z,38.33
2017-10-19T07:04:58.662Z,37.20
2017-10-19T07:07:26.985Z,37.67
2017-10-19T07:09:54.569Z,37.60
2017-10-19T07:12:22.157Z,39.53
2017-10-19T07:14:50.494Z,36.93
2017-10-19T07:17:18.085Z,34.47
2017-10-19T07:19:47.134Z,37.10
2017-10-19T07:22:14.668Z,37.70
2017-10-19T07:24:42.414Z,37.03
2017-10-19T07:27:10.721Z,39.17
2017-10-19T07:29:38.306Z,40.73
2017-10-19T07:32:05.847Z,37.13
2017-10-19T07:34:33.386Z,39.00
2017-10-19T07:37:00.974Z,37.80
2017-10-19T07:39:28.529Z,38.00
2017-10-19T07:41:56.624Z,40.20
2017-10-19T07:44:24.183Z,40.60
2017-10-19T07:46:51.734Z,37.90
2017-10-19T07:49:19.484Z,38.03
2017-10-19T07:51:47.025Z,35.40
2017-10-19T07:54:14.677Z,37.30
2017-10-19T07:56:42.264Z,39.03
2017-10-19T07:59:09.809Z,41.10
2017-10-19T08:01:37.656Z,38.90
2017-10-19T08:04:05.213Z,37.80
2017-10-19T08:06:33.870Z,42.87
2017-10-19T08:09:01.441Z,41.93
2017-10-19T08:11:29.022Z,41.90
2017-10-19T08:13:57.369Z,40.27
2017-10-19T08:16:24.917Z,40.80
2017-10-19T08:18:52.523Z,39.13
2017-10-19T08:21:20.086Z,38.97
2017-10-19T08:23:48.588Z,36.23
2017-10-19T08:26:16.181Z,34.50
2017-10-19T08:28:44.545Z,35.27
2017-10-19T08:31:12.394Z,36.47
2017-10-19T08:33:40.027Z,35.00
2017-10-19T08:36:08.338Z,35.20
2017-10-19T08:38:35.937Z,35.10
2017-10-19T08:41:03.483Z,37.03
2017-10-19T08:43:31.437Z,36.40
2017-10-19T08:45:58.975Z,33.63
2017-10-19T08:48:27.029Z,35.23
2017-10-19T08:50:55.390Z,34.10
2017-10-19T08:53:22.947Z,34.80
2017-10-19T08:55:51.330Z,36.70
2017-10-19T08:58:18.914Z,35.10
2017-10-19T09:00:46.499Z,36.13
2017-10-19T09:03:14.258Z,36.67
2017-10-19T09:05:41.811Z,34.67
2017-10-19T09:08:09.715Z,34.00
2017-10-19T09:10:37.266Z,35.17
2017-10-19T09:13:04.829Z,34.80
2017-10-19T09:15:32.429Z,34.57
2017-10-19T09:17:59.988Z,37.97
2017-10-19T09:20:28.638Z,34.57
2017-10-19T09:22:56.190Z,36.70
2017-10-19T09:25:23.730Z,34.40
2017-10-19T09:27:51.457Z,35.60
2017-10-19T09:30:19.781Z,36.90
2017-10-19T09:32:47.642Z,33.90
2017-10-19T09:35:15.207Z,33.67
2017-10-19T09:37:42.792Z,34.10
2017-10-19T09:40:10.385Z,32.73
2017-10-19T09:42:38.699Z,36.57
2017-10-19T09:45:06.306Z,33.60
2017-10-19T09:47:34.735Z,33.67
2017-10-19T09:50:02.284Z,35.20
2017-10-19T09:52:29.881Z,33.70
2017-10-19T09:54:57.459Z,33.00
2017-10-19T09:57:25.417Z,35.00
2017-10-19T09:59:52.996Z,33.50
2017-10-19T10:02:20.558Z,33.93
2017-10-19T10:04:48.934Z,32.07
2017-10-19T10:07:16.481Z,30.50
2017-10-19T10:09:44.808Z,31.40
2017-10-19T10:12:12.410Z,31.60
2017-10-19T10:14:40.076Z,31.37
2017-10-19T10:17:07.634Z,31.60
2017-10-19T10:19:35.238Z,30.23
2017-10-19T10:22:02.753Z,31.70
2017-10-19T10:24:30.595Z,30.07
2017-10-19T10:26:58.220Z,30.30
2017-10-19T10:29:26.000Z,30.00
2017-10-19T10:31:53.721Z,29.97
2017-10-19T10:34:22.099Z,28.80
2017-10-19T10:36:49.654Z,30.17
2017-10-19T10:39:17.980Z,27.80
2017-10-19T10:41:45.827Z,26.40
2017-10-19T10:44:13.477Z,26.70
2017-10-19T10:46:41.937Z,30.33
2017-10-19T10:49:10.617Z,29.27
2017-10-19T10:51:40.209Z,26.17
2017-10-19T10:54:07.787Z,26.00
2017-10-19T10:56:36.168Z,26.10
2017-10-19T10:59:03.730Z,26.07
2017-10-19T11:01:32.048Z,26.00
2017-10-19T11:03:59.736Z,23.63
2017-10-19T11:06:27.300Z,25.23
2017-10-19T11:08:55.631Z,24.63
2017-10-19T11:11:23.531Z,24.73
2017-10-19T11:13:51.070Z,23.03
2017-10-19T11:16:18.738Z,25.00
2017-10-19T11:18:46.344Z,24.03
2017-10-19T11:21:13.908Z,22.50
2017-10-19T11:23:41.483Z,23.40
2017-10-19T11:26:09.477Z,20.93
2017-10-19T11:28:37.047Z,20.07
2017-10-19T11:31:04.649Z,21.67
2017-10-19T11:33:32.602Z,21.90
2017-10-19T11:36:00.159Z,23.50
2017-10-19T11:38:27.719Z,22.97
2017-10-19T11:40:55.792Z,21.73
2017-10-19T11:43:23.346Z,21.30
2017-10-19T11:45:50.917Z,18.63
2017-10-19T11:48:18.882Z,18.80
2017-10-19T11:50:46.454Z,20.87
2017-10-19T11:53:14.021Z,19.30
2017-10-19T11:55:41.641Z,19.10
2017-10-19T11:58:09.285Z,19.43
2017-10-19T12:00:36.820Z,18.93
2017-10-19T12:03:05.204Z,19.70
2017-10-19T12:05:32.762Z,17.30
2017-10-19T12:08:00.356Z,18.40
2017-10-19T12:10:27.957Z,18.17
2017-10-19T12:12:55.538Z,18.60
2017-10-19T12:15:23.927Z,17.37
2017-10-19T12:17:51.498Z,16.90
2017-10-19T12:20:19.357Z,17.73
2017-10-19T12:22:47.524Z,18.80
2017-10-19T12:25:15.129Z,18.83
2017-10-19T12:27:42.991Z,17.67
2017-10-19T12:30:10.552Z,16.10
2017-10-19T12:32:38.112Z,18.93
2017-10-19T12:35:06.096Z,17.07
2017-10-19T12:37:33.798Z,15.83
2017-10-19T12:40:02.160Z,16.13
2017-10-19T12:42:29.839Z,15.87
2017-10-19T12:44:57.427Z,17.40
2017-10-19T12:47:25.434Z,16.43
2017-10-19T12:49:52.985Z,17.07
2017-10-19T12:52:20.530Z,16.23
2017-10-19T12:54:48.262Z,14.97
2017-10-19T12:57:15.824Z,15.27
2017-10-19T12:59:43.454Z,15.20
2017-10-19T13:02:11.082Z,13.67
2017-10-19T13:04:39.375Z,15.67
2017-10-19T13:07:06.946Z,14.70
2017-10-19T13:09:34.653Z,12.70
2017-10-19T13:12:02.284Z,13.83
2017-10-19T13:14:30.613Z,12.87
2017-10-19T13:16:58.360Z,12.97
2017-10-19T13:19:26.007Z,12.73
2017-10-19T13:21:53.613Z,11.13
2017-10-19T13:24:21.165Z,13.33
2017-10-19T13:26:48.766Z,12.77
2017-10-19T13:29:16.334Z,14.73
2017-10-19T13:31:44.742Z,14.07
2017-10-19T13:34:12.450Z,13.13
2017-10-19T13:36:40.502Z,14.33
2017-10-19T13:39:08.124Z,17.40
2017-10-19T13:41:35.679Z,13.57
2017-10-19T13:44:03.302Z,14.73
2017-10-19T13:46:30.868Z,11.93
2017-10-19T13:48:58.591Z,14.07
2017-10-19T13:51:26.138Z,13.90
2017-10-19T13:53:53.742Z,13.60
2017-10-19T13:56:21.285Z,14.53
2017-10-19T13:58:49.106Z,15.03
2017-10-19T14:01:16.730Z,13.77
2017-10-19T14:03:44.597Z,14.57
2017-10-19T14:06:12.250Z,15.60
2017-10-19T14:08:39.812Z,14.53
2017-10-19T14:11:07.499Z,14.63
2017-10-19T14:13:35.037Z,17.53
2017-10-19T14:16:02.617Z,14.20
2017-10-19T14:18:30.181Z,16.30
2017-10-19T14:20:58.555Z,16.20
2017-10-19T14:23:26.103Z,16.03
2017-10-19T14:25:54.469Z,19.97
2017-10-19T14:28:22.030Z,19.17
2017-10-19T14:30:49.663Z,17.27
2017-10-19T14:33:17.221Z,16.83
2017-10-19T14:35:45.061Z,18.13
2017-10-19T14:38:12.678Z,19.87
2017-10-19T14:40:40.367Z,19.73
2017-10-19T14:43:07.963Z,17.90
2017-10-19T14:45:35.555Z,18.50
2017-10-19T14:48:03.518Z,19.27
2017-10-19T14:50:36.645Z,19.53
2017-10-19T14:53:04.577Z,19.97
2017-10-19T14:55:32.176Z,18.30
2017-10-19T14:57:59.768Z,19.80
2017-10-19T15:00:27.340Z,21.50
2017-10-19T15:02:54.954Z,22.00
2017-10-19T15:05:22.514Z,22.00
2017-10-19T15:07:52.815Z,22.00
2017-10-19T15:10:21.235Z,21.47
2017-10-19T15:12:51.220Z,24.07
2017-10-19T15:15:19.897Z,24.97
2017-10-19T15:17:52.325Z,25.47
2017-10-19T15:20:20.781Z,24.07
2017-10-19T15:22:48.862Z,24.83
2017-10-19T15:25:16.474Z,24.50
2017-10-19T15:27:44.073Z,25.73
2017-10-19T15:30:13.817Z,25.07
2017-10-19T15:32:41.393Z,25.00
2017-10-19T15:35:09.826Z,24.50
2017-10-19T15:37:39.362Z,26.87
2017-10-19T15:40:06.987Z,25.03
2017-10-19T15:42:34.557Z,26.83
2017-10-19T15:45:04.090Z,24.20
2017-10-19T15:47:33.572Z,26.07
2017-10-19T15:50:01.203Z,28.30
2017-10-19T15:52:33.936Z,25.33
2017-10-19T15:55:01.583Z,24.67
2017-10-19T15:57:29.169Z,27.67
2017-10-19T15:59:57.169Z,26.93
2017-10-19T16:02:24.760Z,28.80
2017-10-19T16:04:52.325Z,28.03
2017-10-19T16:07:19.954Z,28.50
2017-10-19T16:09:48.284Z,26.33
2017-10-19T16:12:15.881Z,26.87
2017-10-19T16:14:43.455Z,28.43
2017-10-19T16:17:11.098Z,29.20
2017-10-19T16:19:40.203Z,26.10
2017-10-19T16:22:07.819Z,29.17
2017-10-19T16:24:35.387Z,28.57
2017-10-19T16:27:03.470Z,29.00
2017-10-19T16:29:31.054Z,27.47
2017-10-19T16:31:58.658Z,27.70
2017-10-19T16:34:26.416Z,27.53
2017-10-19T16:36:53.960Z,27.60
2017-10-19T16:39:22.321Z,31.13
2017-10-19T16:41:49.874Z,32.20
2017-10-19T16:44:17.482Z,30.27
2017-10-19T16:46:45.054Z,31.33
2017-10-19T16:49:12.665Z,28.30
2017-10-19T16:51:40.994Z,30.67
2017-10-19T16:54:08.584Z,32.93
2017-10-19T16:56:36.170Z,30.97
2017-10-19T16:59:03.775Z,32.60
2017-10-19T17:01:31.326Z,31.83
2017-10-19T17:03:58.925Z,31.40
2017-10-19T17:06:26.504Z,33.23
2017-10-19T17:08:54.880Z,32.43
2017-10-19T17:11:22.451Z,33.90
2017-10-19T17:13:50.817Z,33.87
2017-10-19T17:16:18.386Z,33.63
2017-10-19T17:18:46.777Z,35.10
2017-10-19T17:21:14.350Z,36.90
2017-10-19T17:23:41.962Z,34.17
2017-10-19T17:26:09.821Z,34.03
2017-10-19T17:28:38.280Z,35.70
2017-10-19T17:31:05.841Z,34.03
2017-10-19T17:33:33.601Z,37.17
2017-10-19T17:36:01.754Z,36.10
2017-10-19T17:38:29.422Z,36.37
2017-10-19T17:40:57.068Z,36.77
2017-10-19T17:43:25.090Z,38.40
2017-10-19T17:45:52.769Z,36.10
2017-10-19T17:48:20.547Z,38.03
2017-10-19T17:50:48.143Z,35.50
2017-10-19T17:53:16.844Z,38.83
2017-10-19T17:55:44.549Z,36.07
2017-10-19T17:58:12.115Z,38.00
2017-10-19T18:00:40.490Z,37.07
2017-10-19T18:03:08.056Z,37.70
2017-10-19T18:05:36.428Z,37.50
2017-10-19T18:08:04.323Z,37.60
2017-10-19T18:10:31.918Z,37.43
2017-10-19T18:13:01.349Z,37.93
2017-10-19T18:15:29.735Z,38.03
2017-10-19T18:17:57.527Z,36.50
2017-10-19T18:20:25.351Z,39.83
2017-10-19T18:22:52.919Z,39.30
2017-10-19T18:25:20.541Z,40.33
2017-10-19T18:27:48.814Z,38.63
2017-10-19T18:30:16.414Z,38.67
2017-10-19T18:32:43.966Z,39.37
2017-10-19T18:35:11.685Z,40.13
2017-10-19T18:37:39.998Z,39.53
2017-10-19T18:40:07.596Z,38.97
2017-10-19T18:42:35.356Z,58.03
2017-10-19T18:45:03.994Z,38.30
2017-10-19T18:47:31.653Z,42.80
2017-10-19T18:49:59.518Z,38.97
2017-10-19T18:52:27.957Z,39.23
2017-10-19T18:54:55.986Z,42.97
2017-10-19T18:57:24.403Z,41.13
2017-10-19T18:59:52.058Z,41.40
2017-10-19T19:04:54.753Z,41.07
2017-10-19T19:07:23.214Z,39.70
2017-10-19T19:09:50.786Z,41.67
2017-10-19T19:12:19.499Z,40.27
2017-10-19T19:14:49.072Z,40.07
2017-10-19T19:17:16.726Z,40.70
2017-10-19T19:19:44.946Z,39.67
2017-10-19T19:22:14.097Z,39.30
2017-10-19T19:24:41.687Z,41.10
2017-10-19T19:27:10.250Z,42.67
2017-10-19T19:29:38.791Z,39.57
2017-10-19T19:32:06.426Z,39.67
2017-10-19T19:34:34.111Z,41.73
2017-10-19T19:37:01.723Z,39.80
2017-10-19T19:39:30.089Z,42.10
2017-10-19T19:41:57.736Z,38.17
2017-10-19T19:44:26.425Z,41.93
2017-10-19T19:46:54.138Z,41.77
2017-10-19T19:49:21.740Z,41.13
2017-10-19T19:51:49.405Z,40.27
2017-10-19T19:54:16.979Z,40.50
2017-10-19T19:56:44.634Z,42.50
2017-10-19T19:59:12.204Z,38.30
2017-10-19T20:01:39.891Z,38.80
2017-10-19T20:04:08.219Z,39.67
2017-10-19T20:06:35.833Z,39.63
2017-10-19T20:09:03.387Z,38.47
2017-10-19T20:11:31.778Z,40.60
2017-10-19T20:14:00.127Z,38.50
2017-10-19T20:16:29.120Z,40.40
2017-10-19T20:18:57.376Z,39.20
2017-10-19T20:21:25.122Z,39.23
2017-10-19T20:23:53.315Z,39.00
2017-10-19T20:26:23.278Z,36.80
2017-10-19T20:28:51.753Z,39.83
2017-10-19T20:31:19.783Z,41.47
2017-10-19T20:33:47.468Z,39.17
2017-10-19T20:36:18.270Z,37.30
2017-10-19T20:38:46.756Z,43.33
2017-10-19T20:41:15.140Z,41.60
2017-10-19T20:43:42.782Z,38.97
2017-10-19T20:46:10.358Z,39.00
2017-10-19T20:48:39.070Z,43.13
2017-10-19T20:51:06.638Z,39.53
2017-10-19T20:53:35.036Z,37.00
2017-10-19T20:56:03.750Z,39.53
2017-10-19T20:58:32.448Z,41.57
2017-10-19T21:01:00.955Z,40.80
2017-10-19T21:03:29.309Z,37.10
2017-10-19T21:05:57.697Z,39.23
2017-10-19T21:08:25.763Z,38.07
2017-10-19T21:10:54.156Z,39.17
2017-10-19T21:13:23.306Z,37.63
2017-10-19T21:15:50.874Z,42.03
2017-10-19T21:18:18.483Z,42.70
2017-10-19T21:20:46.802Z,38.17
2017-10-19T21:23:14.382Z,38.17
2017-10-19T21:25:41.925Z,36.90
2017-10-19T21:28:09.527Z,36.30
2017-10-19T21:30:37.087Z,38.77
2017-10-19T21:33:04.663Z,36.53
2017-10-19T21:35:32.995Z,37.30
2017-10-19T21:38:00.586Z,39.63
2017-10-19T21:40:28.844Z,37.07
2017-10-19T21:42:56.467Z,36.77
2017-10-19T21:45:24.027Z,37.07
2017-10-19T21:47:51.631Z,38.50
2017-10-19T21:50:19.191Z,37.40
2017-10-19T21:52:47.116Z,38.93
2017-10-19T21:55:14.676Z,37.30
2017-10-19T21:57:42.335Z,37.67
2017-10-19T22:00:09.973Z,36.60
2017-10-19T22:02:38.303Z,38.50
2017-10-19T22:05:06.199Z,38.17
2017-10-19T22:07:33.748Z,38.53
2017-10-19T22:10:01.302Z,36.83
2017-10-19T22:12:29.256Z,37.03
2017-10-19T22:14:56.814Z,38.20
2017-10-19T22:17:24.598Z,39.73
2017-10-19T22:19:52.486Z,36.20
2017-10-19T22:22:20.789Z,38.47
2017-10-19T22:24:48.361Z,38.97
2017-10-19T22:27:15.963Z,37.77
2017-10-19T22:29:43.523Z,38.50
2017-10-19T22:32:11.155Z,36.00
2017-10-19T22:34:38.716Z,36.90
2017-10-19T22:37:06.309Z,35.60
2017-10-19T22:39:33.887Z,37.30
2017-10-19T22:42:01.505Z,37.60
2017-10-19T22:44:29.617Z,36.53
2017-10-19T22:46:57.222Z,38.63
2017-10-19T22:49:24.776Z,37.93
2017-10-19T22:51:52.361Z,37.30
2017-10-19T22:54:19.917Z,39.17
2017-10-19T22:56:47.770Z,38.40
2017-10-19T22:59:15.493Z,36.30
2017-10-19T23:01:44.590Z,37.00
2017-10-19T23:04:12.141Z,38.63
2017-10-19T23:06:39.697Z,37.87
2017-10-19T23:09:07.278Z,35.20
2017-10-19T23:11:35.589Z,36.27
2017-10-19T23:14:03.414Z,37.13
2017-10-19T23:16:30.954Z,36.70
2017-10-19T23:18:58.545Z,37.87
2017-10-19T23:21:26.865Z,36.93
2017-10-19T23:23:54.633Z,37.87
2017-10-19T23:26:22.187Z,35.50
2017-10-19T23:28:50.113Z,37.47
2017-10-19T23:31:17.678Z,37.00
2017-10-19T23:33:46.021Z,37.23
2017-10-19T23:36:13.612Z,37.73
2017-10-19T23:38:41.954Z,35.50
2017-10-19T23:41:09.501Z,34.63
2017-10-19T23:43:37.098Z,38.53
2017-10-19T23:46:04.622Z,37.93
2017-10-19T23:48:32.205Z,36.90
2017-10-19T23:50:59.747Z,36.97
2017-10-19T23:53:27.341Z,35.60
2017-10-19T23:55:54.881Z,36.77
2017-10-19T23:58:22.471Z,37.13
